createdAt,value
2023-04-09T00:00:42.216Z,37.38
2023-04-09T00:03:08.926Z,37.03
2023-04-09T00:05:39.649Z,39.05
2023-04-09T00:08:06.950Z,39.88
2023-04-09T00:10:33.477Z,40.67
2023-04-09T00:13:00.252Z,43.45
2023-04-09T00:15:31.320Z,42.20
2023-04-09T00:17:58.605Z,45.60
2023-04-09T00:20:25.410Z,42.95
2023-04-09T00:22:52.334Z,43.60
2023-04-09T00:25:20.015Z,40.25
2023-04-09T00:27:46.995Z,38.28
2023-04-09T00:30:13.806Z,37.72
2023-04-09T00:32:40.632Z,39.83
2023-04-09T00:35:08.406Z,36.92
2023-04-09T00:37:35.255Z,40.00
2023-04-09T00:40:01.869Z,43.95
2023-04-09T00:42:32.287Z,40.30
2023-04-09T00:44:59.244Z,38.45
2023-04-09T00:47:29.913Z,41.65
2023-04-09T00:49:57.634Z,41.10
2023-04-09T00:52:25.023Z,47.55
2023-04-09T00:54:52.486Z,46.72
2023-04-09T00:57:19.646Z,41.92
2023-04-09T00:59:46.394Z,40.90
2023-04-09T01:02:13.159Z,42.38
2023-04-09T01:04:42.305Z,45.78
2023-04-09T01:07:31.837Z,44.63
2023-04-09T01:10:10.777Z,44.63
2023-04-09T01:12:44.117Z,45.00
2023-04-09T01:15:15.298Z,42.05
2023-04-09T01:17:47.031Z,43.35
2023-04-09T01:20:31.736Z,42.53
2023-04-09T01:23:36.996Z,38.88
2023-04-09T01:26:34.034Z,39.47
2023-04-09T01:29:03.050Z,39.03
2023-04-09T01:31:36.058Z,40.22
2023-04-09T01:34:03.716Z,41.00
2023-04-09T01:36:32.367Z,45.35
2023-04-09T01:39:01.255Z,47.83
2023-04-09T01:41:31.163Z,46.88
2023-04-09T01:44:01.773Z,40.40
2023-04-09T01:46:29.924Z,42.00
2023-04-09T01:48:57.433Z,41.30
2023-04-09T01:51:24.298Z,40.50
2023-04-09T01:53:51.221Z,44.25
2023-04-09T01:56:17.815Z,43.40
2023-04-09T01:58:44.889Z,47.22
2023-04-09T02:01:27.336Z,49.70
2023-04-09T02:04:00.849Z,50.65
2023-04-09T02:06:33.149Z,50.95
2023-04-09T02:09:02.096Z,52.75
2023-04-09T02:11:32.153Z,52.35
2023-04-09T02:13:59.370Z,52.47
2023-04-09T02:16:27.465Z,49.85
2023-04-09T02:18:58.066Z,47.17
2023-04-09T02:21:24.617Z,47.22
2023-04-09T02:23:51.249Z,47.90
2023-04-09T02:26:18.153Z,48.38
2023-04-09T02:28:44.686Z,49.50
2023-04-09T02:31:11.562Z,56.30
2023-04-09T02:33:38.234Z,57.83
2023-04-09T02:36:05.782Z,61.00
2023-04-09T02:38:32.678Z,61.00
2023-04-09T02:40:59.256Z,59.92
2023-04-09T02:43:25.809Z,57.20
2023-04-09T02:45:52.354Z,55.45
2023-04-09T02:48:18.905Z,51.25
2023-04-09T02:50:45.464Z,52.47
2023-04-09T02:53:12.095Z,53.67
2023-04-09T02:55:38.651Z,53.05
2023-04-09T02:58:05.192Z,52.47
2023-04-09T03:00:31.793Z,52.38
2023-04-09T03:02:58.764Z,51.30
2023-04-09T03:05:25.525Z,51.42
2023-04-09T03:07:52.137Z,52.60
2023-04-09T03:10:18.695Z,56.72
2023-04-09T03:12:45.321Z,55.38
2023-04-09T03:15:11.876Z,55.95
2023-04-09T03:17:39.137Z,56.42
2023-04-09T03:20:07.670Z,54.17
2023-04-09T03:22:38.096Z,51.80
2023-04-09T03:25:05.693Z,54.47
2023-04-09T03:27:32.857Z,51.97
2023-04-09T03:29:59.440Z,49.78
2023-04-09T03:32:26.035Z,49.97
2023-04-09T03:34:52.647Z,48.88
2023-04-09T03:37:19.292Z,47.20
2023-04-09T03:39:45.862Z,42.72
2023-04-09T03:42:12.425Z,42.55
2023-04-09T03:44:38.983Z,41.53
2023-04-09T03:47:05.779Z,40.35
2023-04-09T03:49:35.807Z,40.53
2023-04-09T03:52:02.403Z,41.08
2023-04-09T03:54:31.890Z,40.00
2023-04-09T03:56:58.451Z,37.28
2023-04-09T03:59:25.091Z,37.53
2023-04-09T04:01:51.744Z,38.90
2023-04-09T04:04:19.427Z,37.72
2023-04-09T04:06:47.757Z,39.53
2023-04-09T04:09:14.342Z,39.88
2023-04-09T04:11:40.933Z,39.35
2023-04-09T04:14:07.502Z,41.08
2023-04-09T04:16:34.185Z,39.78
2023-04-09T04:19:01.020Z,40.22
2023-04-09T04:21:27.608Z,38.67
2023-04-09T04:23:54.182Z,38.13
2023-04-09T04:26:20.861Z,41.90
2023-04-09T04:28:47.447Z,43.17
2023-04-09T04:31:14.029Z,44.47
2023-04-09T04:33:41.929Z,44.85
2023-04-09T04:36:14.655Z,45.72
2023-04-09T04:38:42.178Z,45.63
2023-04-09T04:41:10.431Z,44.95
2023-04-09T04:43:37.066Z,45.50
2023-04-09T04:46:03.782Z,43.70
2023-04-09T04:48:30.986Z,46.45
2023-04-09T04:50:59.437Z,49.55
2023-04-09T04:53:26.356Z,48.60
2023-04-09T04:55:53.217Z,50.17
2023-04-09T04:58:20.113Z,51.30
2023-04-09T05:00:46.887Z,52.72
2023-04-09T05:03:13.936Z,54.97
2023-04-09T05:05:40.726Z,54.33
2023-04-09T05:08:07.484Z,55.63
2023-04-09T05:10:34.070Z,55.75
2023-04-09T05:13:00.765Z,54.97
2023-04-09T05:15:27.622Z,55.40
2023-04-09T05:17:54.387Z,58.88
2023-04-09T05:20:20.962Z,58.13
2023-04-09T05:22:47.606Z,60.38
2023-04-09T05:25:16.320Z,59.05
2023-04-09T05:27:43.149Z,59.90
2023-04-09T05:30:10.374Z,62.35
2023-04-09T05:32:37.277Z,63.25
2023-04-09T05:35:04.197Z,62.40
2023-04-09T05:37:30.791Z,62.88
2023-04-09T05:39:57.497Z,63.17
2023-04-09T05:42:24.206Z,63.58
2023-04-09T05:44:51.009Z,59.28
2023-04-09T05:47:17.669Z,63.85
2023-04-09T05:49:44.271Z,60.72
2023-04-09T05:52:10.964Z,65.18
2023-04-09T05:54:37.816Z,64.18
2023-04-09T05:57:04.606Z,65.75
2023-04-09T05:59:31.163Z,66.47
2023-04-09T06:01:57.755Z,66.72
2023-04-09T06:04:24.462Z,67.82
2023-04-09T06:06:51.822Z,71.30
2023-04-09T06:09:18.403Z,68.10
2023-04-09T06:11:44.956Z,70.43
2023-04-09T06:14:16.326Z,73.60
2023-04-09T06:16:42.933Z,73.97
2023-04-09T06:19:09.525Z,72.95
2023-04-09T06:21:36.259Z,74.32
2023-04-09T06:24:02.843Z,72.78
2023-04-09T06:26:29.390Z,71.85
2023-04-09T06:28:55.934Z,71.80
2023-04-09T06:31:22.617Z,66.90
2023-04-09T06:33:49.280Z,62.95
2023-04-09T06:36:16.002Z,65.15
2023-04-09T06:38:42.586Z,58.47
2023-04-09T06:41:09.369Z,63.60
2023-04-09T06:43:37.436Z,62.25
2023-04-09T06:46:04.162Z,66.55
2023-04-09T06:48:31.334Z,68.88
2023-04-09T06:50:57.912Z,68.57
2023-04-09T06:53:24.516Z,67.90
2023-04-09T06:55:51.375Z,70.28
2023-04-09T06:58:17.964Z,73.65
2023-04-09T07:00:44.539Z,79.82
2023-04-09T07:03:11.512Z,84.00
2023-04-09T07:05:38.231Z,81.13
2023-04-09T07:08:05.244Z,88.28
2023-04-09T07:10:31.881Z,94.28
2023-04-09T07:12:58.502Z,88.20
2023-04-09T07:15:25.212Z,90.32
2023-04-09T07:17:51.795Z,84.63
2023-04-09T07:20:18.490Z,80.82
2023-04-09T07:22:46.522Z,91.30
2023-04-09T07:25:13.099Z,92.28
2023-04-09T07:27:39.723Z,83.70
2023-04-09T07:30:07.004Z,76.80
2023-04-09T07:32:33.600Z,81.72
2023-04-09T07:35:00.376Z,68.20
2023-04-09T07:37:27.154Z,53.92
2023-04-09T07:39:53.837Z,51.13
2023-04-09T07:42:20.439Z,48.20
2023-04-09T07:44:47.741Z,42.53
2023-04-09T07:47:14.792Z,46.95
2023-04-09T07:49:42.063Z,59.28
2023-04-09T07:52:08.767Z,49.58
2023-04-09T07:54:35.847Z,44.28
2023-04-09T07:57:03.120Z,57.95
2023-04-09T07:59:31.588Z,75.70
2023-04-09T08:01:59.175Z,106.53
2023-04-09T08:04:27.160Z,68.07
2023-04-09T08:06:54.242Z,78.97
2023-04-09T08:09:21.552Z,109.45
2023-04-09T08:11:49.469Z,129.32
2023-04-09T08:14:17.135Z,137.60
2023-04-09T08:16:46.273Z,140.45
2023-04-09T08:19:14.881Z,142.00
2023-04-09T08:21:48.739Z,183.60
2023-04-09T08:24:15.687Z,166.52
2023-04-09T08:26:43.292Z,164.93
2023-04-09T08:29:12.359Z,134.77
2023-04-09T08:31:39.096Z,136.68
2023-04-09T08:34:06.202Z,140.60
2023-04-09T08:36:34.716Z,74.45
2023-04-09T08:39:02.267Z,39.22
2023-04-09T08:41:29.480Z,31.52
2023-04-09T08:43:58.945Z,30.08
2023-04-09T08:46:26.500Z,31.77
2023-04-09T08:48:53.813Z,32.38
2023-04-09T08:51:23.184Z,30.67
2023-04-09T08:53:55.843Z,31.88
2023-04-09T08:56:22.861Z,32.25
2023-04-09T08:58:49.744Z,31.50
2023-04-09T09:01:20.855Z,31.58
2023-04-09T09:04:05.088Z,31.58
2023-04-09T09:06:37.467Z,34.65
2023-04-09T09:09:11.036Z,31.13
2023-04-09T09:11:48.600Z,30.80
2023-04-09T09:14:17.127Z,31.55
2023-04-09T09:17:03.804Z,34.15
2023-04-09T09:19:33.661Z,35.05
2023-04-09T09:22:03.523Z,38.13
2023-04-09T09:24:32.545Z,39.03
2023-04-09T09:26:59.220Z,36.78
2023-04-09T09:29:26.337Z,31.35
2023-04-09T09:31:54.365Z,35.20
2023-04-09T09:34:23.458Z,41.55
2023-04-09T09:36:50.231Z,44.15
2023-04-09T09:39:17.994Z,45.10
2023-04-09T09:41:46.021Z,45.63
2023-04-09T09:44:29.971Z,43.95
2023-04-09T09:46:57.589Z,45.95
2023-04-09T09:49:24.111Z,42.85
2023-04-09T09:51:53.308Z,32.20
2023-04-09T09:54:25.566Z,32.08
2023-04-09T09:56:55.706Z,39.63
2023-04-09T09:59:31.006Z,38.92
2023-04-09T10:02:01.509Z,29.30
2023-04-09T10:04:29.768Z,28.77
2023-04-09T10:06:58.061Z,29.45
2023-04-09T10:09:28.105Z,30.30
2023-04-09T10:11:57.445Z,30.38
2023-04-09T10:14:24.727Z,31.92
2023-04-09T10:16:51.560Z,30.33
2023-04-09T10:19:18.720Z,29.75
2023-04-09T10:21:53.742Z,29.42
2023-04-09T10:24:20.808Z,29.60
2023-04-09T10:26:47.717Z,31.33
2023-04-09T10:29:16.416Z,30.83
2023-04-09T10:32:06.441Z,31.73
2023-04-09T10:34:41.954Z,31.05
2023-04-09T10:37:13.631Z,31.40
2023-04-09T10:39:47.857Z,31.23
2023-04-09T10:42:18.784Z,31.08
2023-04-09T10:44:46.037Z,30.35
2023-04-09T10:47:31.011Z,30.40
2023-04-09T10:52:30.263Z,31.52
2023-04-09T10:54:58.826Z,33.42
2023-04-09T10:57:26.354Z,33.15
2023-04-09T10:59:54.907Z,33.10
2023-04-09T11:02:39.861Z,32.78
2023-04-09T11:05:32.422Z,33.15
2023-04-09T11:08:13.335Z,32.88
2023-04-09T11:10:44.032Z,33.30
2023-04-09T11:13:15.809Z,32.17
2023-04-09T11:15:42.981Z,33.20
2023-04-09T11:18:09.989Z,32.78
2023-04-09T11:20:36.665Z,32.38
2023-04-09T11:23:03.458Z,30.35
2023-04-09T11:25:32.986Z,29.85
2023-04-09T11:28:02.267Z,31.98
2023-04-09T11:30:29.112Z,28.90
2023-04-09T11:32:55.833Z,29.35
2023-04-09T11:35:23.733Z,29.27
2023-04-09T11:37:52.396Z,29.13
2023-04-09T11:40:26.885Z,28.60
2023-04-09T11:42:55.325Z,29.25
2023-04-09T11:45:27.195Z,28.00
2023-04-09T11:47:54.174Z,29.33
2023-04-09T11:50:21.851Z,31.58
2023-04-09T11:52:49.660Z,30.23
2023-04-09T11:55:27.109Z,29.00
2023-04-09T11:57:58.085Z,31.75
2023-04-09T12:00:25.083Z,32.67
2023-04-09T12:03:02.666Z,31.42
2023-04-09T12:05:32.028Z,32.03
2023-04-09T12:08:01.236Z,32.35
2023-04-09T12:10:29.671Z,29.75
2023-04-09T12:13:02.349Z,30.67
2023-04-09T12:15:37.863Z,31.67
2023-04-09T12:18:09.072Z,31.08
2023-04-09T12:20:39.678Z,31.60
2023-04-09T12:23:07.825Z,28.92
2023-04-09T12:25:39.762Z,33.78
2023-04-09T12:28:08.821Z,30.95
2023-04-09T12:30:36.058Z,31.02
2023-04-09T12:33:04.100Z,32.20
2023-04-09T12:35:30.974Z,30.88
2023-04-09T12:37:59.305Z,32.42
2023-04-09T12:40:26.432Z,33.50
2023-04-09T12:42:53.120Z,30.15
2023-04-09T12:45:20.932Z,33.17
2023-04-09T12:47:48.194Z,32.90
2023-04-09T12:50:16.263Z,31.55
2023-04-09T12:52:43.996Z,36.22
2023-04-09T12:55:12.114Z,34.83
2023-04-09T12:57:40.012Z,34.67
2023-04-09T13:00:08.017Z,34.05
2023-04-09T13:02:35.484Z,31.50
2023-04-09T13:05:02.608Z,34.58
2023-04-09T13:07:29.520Z,34.08
2023-04-09T13:09:57.204Z,26.60
2023-04-09T13:12:24.265Z,25.40
2023-04-09T13:14:53.683Z,25.70
2023-04-09T13:17:20.281Z,24.80
2023-04-09T13:19:46.916Z,23.27
2023-04-09T13:22:13.550Z,22.00
2023-04-09T13:24:40.195Z,19.30
2023-04-09T13:27:09.458Z,18.92
2023-04-09T13:29:36.267Z,16.20
2023-04-09T13:32:07.076Z,16.40
2023-04-09T13:34:35.626Z,16.60
2023-04-09T13:37:05.479Z,14.07
2023-04-09T13:39:32.955Z,15.07
2023-04-09T13:42:01.419Z,15.27
2023-04-09T13:44:29.255Z,15.07
2023-04-09T13:46:56.001Z,14.93
2023-04-09T13:49:22.693Z,15.95
2023-04-09T13:51:50.179Z,14.85
2023-04-09T13:54:17.486Z,15.48
2023-04-09T13:56:44.971Z,15.70
2023-04-09T13:59:11.824Z,15.75
2023-04-09T14:01:38.555Z,15.32
2023-04-09T14:04:05.304Z,15.55
2023-04-09T14:06:32.041Z,14.80
2023-04-09T14:08:58.622Z,16.50
2023-04-09T14:11:25.377Z,15.32
2023-04-09T14:13:52.057Z,15.70
2023-04-09T14:16:19.578Z,14.50
2023-04-09T14:18:46.360Z,13.90
2023-04-09T14:21:13.293Z,15.73
2023-04-09T14:23:40.377Z,14.68
2023-04-09T14:26:07.227Z,15.57
2023-04-09T14:28:33.829Z,15.15
2023-04-09T14:31:00.681Z,15.15
2023-04-09T14:33:27.630Z,14.77
2023-04-09T14:35:54.217Z,14.50
2023-04-09T14:38:20.815Z,14.20
2023-04-09T14:40:47.499Z,14.25
2023-04-09T14:43:14.245Z,14.02
2023-04-09T14:45:41.048Z,13.52
2023-04-09T14:48:08.193Z,14.30
2023-04-09T14:50:36.238Z,14.95
2023-04-09T14:53:03.836Z,14.35
2023-04-09T14:55:30.414Z,14.90
2023-04-09T14:57:57.092Z,14.43
2023-04-09T15:00:23.664Z,14.07
2023-04-09T15:02:50.660Z,16.27
2023-04-09T15:05:17.340Z,16.02
2023-04-09T15:07:44.099Z,14.90
2023-04-09T15:10:11.189Z,14.52
2023-04-09T15:12:37.781Z,15.00
2023-04-09T15:15:08.817Z,14.95
2023-04-09T15:20:02.572Z,14.13
2023-04-09T15:22:29.246Z,15.10
2023-04-09T15:24:56.188Z,14.63
2023-04-09T15:27:22.887Z,15.00
2023-04-09T15:29:49.584Z,14.32
2023-04-09T15:32:16.598Z,14.68
2023-04-09T15:34:43.205Z,14.07
2023-04-09T15:37:09.776Z,14.00
2023-04-09T15:39:36.639Z,15.38
2023-04-09T15:42:03.385Z,14.68
2023-04-09T15:44:30.105Z,14.25
2023-04-09T15:46:56.871Z,14.25
2023-04-09T15:49:23.627Z,14.68
2023-04-09T15:51:51.042Z,14.95
2023-04-09T15:54:17.761Z,13.88
2023-04-09T15:56:44.329Z,14.57
2023-04-09T15:59:10.905Z,15.10
2023-04-09T16:01:37.825Z,13.80
2023-04-09T16:04:04.919Z,13.63
2023-04-09T16:06:32.392Z,13.88
2023-04-09T16:08:59.205Z,14.50
2023-04-09T16:11:26.047Z,13.88
2023-04-09T16:13:52.792Z,15.00
2023-04-09T16:16:20.209Z,15.73
2023-04-09T16:18:47.632Z,14.95
2023-04-09T16:21:14.270Z,12.60
2023-04-09T16:23:41.011Z,14.13
2023-04-09T16:26:07.714Z,14.07
2023-04-09T16:28:34.266Z,13.65
2023-04-09T16:31:00.929Z,15.68
2023-04-09T16:33:27.590Z,14.10
2023-04-09T16:35:54.168Z,13.68
2023-04-09T16:38:20.794Z,13.95
2023-04-09T16:40:47.477Z,15.30
2023-04-09T16:43:14.071Z,13.98
2023-04-09T16:45:40.776Z,14.43
2023-04-09T16:48:12.220Z,15.75
2023-04-09T16:50:40.309Z,15.82
2023-04-09T16:53:08.511Z,16.42
2023-04-09T16:55:35.692Z,16.77
2023-04-09T16:58:02.299Z,16.90
2023-04-09T17:00:29.030Z,16.80
2023-04-09T17:02:57.930Z,17.02
2023-04-09T17:05:24.897Z,17.92
2023-04-09T17:07:52.441Z,18.95
2023-04-09T17:10:19.545Z,18.40
2023-04-09T17:12:46.409Z,18.30
2023-04-09T17:15:13.047Z,18.20
2023-04-09T17:17:39.832Z,21.08
2023-04-09T17:20:07.081Z,19.30
2023-04-09T17:22:35.142Z,21.13
2023-04-09T17:25:02.509Z,19.98
2023-04-09T17:27:29.223Z,20.55
2023-04-09T17:29:56.022Z,21.90
2023-04-09T17:32:22.855Z,20.90
2023-04-09T17:34:49.522Z,21.92
2023-04-09T17:37:16.388Z,22.63
2023-04-09T17:39:43.032Z,21.33
2023-04-09T17:42:11.849Z,22.30
2023-04-09T17:44:38.725Z,23.63
2023-04-09T17:47:07.288Z,22.90
2023-04-09T17:49:34.119Z,24.05
2023-04-09T17:52:01.249Z,24.00
2023-04-09T17:54:33.525Z,24.13
2023-04-09T17:57:01.350Z,24.20
2023-04-09T17:59:28.063Z,25.42
2023-04-09T18:01:55.323Z,25.50
2023-04-09T18:04:26.241Z,25.20
2023-04-09T18:06:53.153Z,27.38
2023-04-09T18:09:19.782Z,27.73
2023-04-09T18:11:47.177Z,28.80
2023-04-09T18:14:13.896Z,28.95
2023-04-09T18:16:41.360Z,28.73
2023-04-09T18:19:08.289Z,29.25
2023-04-09T18:21:37.756Z,30.35
2023-04-09T18:24:04.917Z,29.75
2023-04-09T18:26:33.423Z,30.23
2023-04-09T18:29:01.436Z,30.48
2023-04-09T18:31:28.596Z,31.45
2023-04-09T18:33:55.402Z,31.48
2023-04-09T18:36:22.296Z,32.00
2023-04-09T18:38:49.061Z,32.80
2023-04-09T18:41:23.173Z,29.77
2023-04-09T18:43:49.776Z,30.50
2023-04-09T18:46:16.386Z,29.10
2023-04-09T18:48:47.052Z,29.10
2023-04-09T18:51:14.496Z,27.60
2023-04-09T18:53:41.820Z,28.40
2023-04-09T18:56:08.469Z,28.67
2023-04-09T18:58:36.186Z,27.52
2023-04-09T19:01:12.354Z,27.95
2023-04-09T19:03:39.963Z,28.55
2023-04-09T19:06:18.068Z,28.17
2023-04-09T19:08:46.192Z,26.50
2023-04-09T19:11:13.484Z,27.42
2023-04-09T19:13:40.531Z,27.20
2023-04-09T19:16:09.059Z,25.88
2023-04-09T19:18:36.857Z,26.00
2023-04-09T19:21:03.552Z,24.67
2023-04-09T19:23:30.743Z,23.27
2023-04-09T19:25:57.461Z,24.52
2023-04-09T19:28:24.511Z,22.58
2023-04-09T19:30:54.254Z,23.75
2023-04-09T19:33:22.603Z,23.60
2023-04-09T19:35:50.183Z,24.27
2023-04-09T19:38:18.148Z,22.80
2023-04-09T19:40:45.969Z,22.27
2023-04-09T19:43:12.806Z,24.08
2023-04-09T19:45:39.742Z,24.23
2023-04-09T19:48:07.225Z,25.40
2023-04-09T19:50:38.874Z,23.52
2023-04-09T19:53:06.139Z,25.17
2023-04-09T19:55:33.639Z,26.80
2023-04-09T19:58:00.600Z,31.00
2023-04-09T20:00:28.311Z,32.33
2023-04-09T20:02:55.696Z,37.20
2023-04-09T20:05:22.964Z,42.33
2023-04-09T20:07:50.770Z,47.25
2023-04-09T20:10:17.656Z,48.70
2023-04-09T20:12:47.873Z,52.65
2023-04-09T20:15:14.813Z,55.70
2023-04-09T20:17:44.383Z,55.95
2023-04-09T20:20:11.828Z,56.92
2023-04-09T20:22:43.220Z,60.50
2023-04-09T20:25:12.837Z,61.40
2023-04-09T20:27:39.633Z,65.72
2023-04-09T20:30:07.150Z,59.42
2023-04-09T20:32:35.807Z,52.05
2023-04-09T20:35:02.527Z,44.85
2023-04-09T20:37:29.138Z,42.20
2023-04-09T20:39:55.726Z,48.22
2023-04-09T20:42:22.257Z,52.00
2023-04-09T20:44:48.784Z,51.83
2023-04-09T20:47:15.658Z,63.10
2023-04-09T20:49:43.046Z,62.33
2023-04-09T20:52:09.954Z,59.40
2023-04-09T20:54:36.481Z,59.97
2023-04-09T20:57:04.964Z,61.13
2023-04-09T20:59:32.201Z,56.10
2023-04-09T21:01:58.884Z,57.72
2023-04-09T21:04:26.103Z,53.58
2023-04-09T21:06:53.193Z,48.92
2023-04-09T21:09:19.808Z,50.35
2023-04-09T21:11:46.432Z,50.50
2023-04-09T21:14:14.779Z,50.33
2023-04-09T21:16:41.450Z,48.33
2023-04-09T21:19:08.094Z,46.15
2023-04-09T21:21:34.864Z,46.45
2023-04-09T21:24:01.829Z,42.67
2023-04-09T21:26:33.696Z,38.45
2023-04-09T21:29:11.768Z,39.13
2023-04-09T21:31:38.386Z,35.83
2023-04-09T21:34:05.237Z,37.50
2023-04-09T21:36:34.677Z,37.67
2023-04-09T21:39:01.529Z,36.10
2023-04-09T21:41:28.258Z,36.25
2023-04-09T21:43:54.897Z,34.28
2023-04-09T21:46:21.794Z,35.28
2023-04-09T21:48:48.538Z,34.80
2023-04-09T21:51:15.115Z,33.60
2023-04-09T21:53:41.680Z,33.88
2023-04-09T21:56:08.473Z,32.55
2023-04-09T21:58:35.338Z,32.00
2023-04-09T22:01:02.039Z,32.15
2023-04-09T22:03:28.960Z,31.85
2023-04-09T22:05:55.877Z,31.27
2023-04-09T22:08:22.446Z,30.27
2023-04-09T22:10:49.039Z,29.00
2023-04-09T22:13:15.912Z,29.05
2023-04-09T22:15:42.782Z,32.47
2023-04-09T22:18:09.420Z,32.58
2023-04-09T22:20:36.210Z,32.10
2023-04-09T22:23:03.133Z,37.22
2023-04-09T22:25:34.832Z,40.72
2023-04-09T22:28:01.473Z,39.05
2023-04-09T22:30:28.142Z,44.63
2023-04-09T22:32:54.783Z,44.58
2023-04-09T22:35:21.358Z,47.58
2023-04-09T22:37:47.939Z,48.88
2023-04-09T22:40:16.108Z,48.38
2023-04-09T22:42:44.038Z,52.03
2023-04-09T22:45:11.281Z,52.78
2023-04-09T22:47:38.781Z,54.00
2023-04-09T22:50:07.014Z,53.25
2023-04-09T22:52:33.580Z,53.75
2023-04-09T22:55:00.318Z,55.63
2023-04-09T22:57:26.899Z,63.25
2023-04-09T22:59:53.415Z,62.20
2023-04-09T23:02:20.160Z,62.70
2023-04-09T23:04:46.883Z,63.33
2023-04-09T23:07:13.451Z,66.15
2023-04-09T23:09:40.212Z,64.95
2023-04-09T23:12:06.762Z,62.92
2023-04-09T23:14:33.307Z,65.68
2023-04-09T23:16:59.922Z,65.03
2023-04-09T23:19:27.082Z,63.90
2023-04-09T23:21:53.639Z,63.60
2023-04-09T23:24:20.291Z,62.35
2023-04-09T23:26:46.862Z,62.42
2023-04-09T23:29:13.461Z,61.38
2023-04-09T23:31:40.066Z,62.90
2023-04-09T23:34:06.696Z,61.30
2023-04-09T23:36:33.313Z,58.88
2023-04-09T23:38:59.908Z,57.08
2023-04-09T23:41:26.716Z,56.22
2023-04-09T23:43:53.497Z,57.35
2023-04-09T23:46:20.677Z,56.63
2023-04-09T23:48:47.224Z,55.17
2023-04-09T23:51:18.435Z,56.17
2023-04-09T23:53:45.431Z,55.60
2023-04-09T23:56:14.543Z,55.70
2023-04-09T23:58:41.329Z,54.45
